Gulf — V2BB5 — position and weather

sailwx.info

Track history (hours):
 
Tides and Currents Weather Stations Pressure Air Temp Water Temp Dewpoint Dewpoint Depression Visibility Wind Speed Wind Dir Waves Ship Positions

Gulf

Last reported at 2015-Jul-29 19:15 UTC. Time now 2015-Aug-02 16:26 UTC.
Position N 37°14' E 015°29'.

Length 96 m; draft 3.2 m.

Type: Cargo ship. MMSI: 304320000.

Date/timePositionNaut miles runAvg speedWind from/ knotsBaromVisibWave heightAir tempDewpointWater temp
2015-Jul-29 19:15N 37°14' E 015°29'7 0.3
2015-Jul-28 19:09N 37°20' E 015°33'0 0.7
2015-Jul-28 18:33N 37°21' E 015°33'15 1.4
2015-Jul-28 08:06N 37°06' E 015°28'9 3.6
2015-Jul-28 05:33N 36°57' E 015°29'1 0.7
2015-Jul-28 04:33N 36°58' E 015°30'12 0.8
2015-Jul-27 13:33N 37°09' E 015°35'9 0.5
2015-Jul-26 20:03N 37°17' E 015°31'0 0.6
2015-Jul-26 19:33N 37°17' E 015°30'1 0.6
2015-Jul-26 18:33N 37°17' E 015°29'74 3.2
2015-Jul-25 19:33N 36°08' E 014°55'6 6.5
2015-Jul-25 18:34N 36°03' E 014°51'7 6.6
2015-Jul-25 17:33N 35°57' E 014°47'4 3.0
2015-Jul-25 16:14N 35°53' E 014°45'0 0.0
2015-Jul-25 15:29N 35°53' E 014°45'0 0.0
2015-Jul-25 14:32N 35°53' E 014°45'0 0.0
2015-Jul-25 13:32N 35°53' E 014°45'0 0.0
2015-Jul-25 12:32N 35°53' E 014°45'18 5.4
2015-Jul-25 09:18N 35°45' E 014°26'7 9.0
2015-Jul-25 08:33N 35°49' E 014°19'10 9.7
2015-Jul-25 07:33N 35°56' E 014°11'9 9.2
2015-Jul-25 06:34N 36°02' E 014°03'8 8.3
2015-Jul-25 05:33N 36°06' E 013°54'8 7.9
2015-Jul-25 04:33N 36°10' E 013°45'32 7.7
2015-Jul-25 00:24N 36°27' E 013°12'7 7.8
2015-Jul-24 23:33N 36°31' E 013°05'8 7.8
2015-Jul-24 22:34N 36°35' E 012°57'8 7.8
2015-Jul-24 21:34N 36°39' E 012°48'8 7.7
2015-Jul-24 20:34N 36°43' E 012°40'8 7.8
2015-Jul-24 19:34N 36°47' E 012°32'9 8.4
2015-Jul-24 18:28N 36°52' E 012°22'11 8.9
2015-Jul-24 17:14N 36°57' E 012°10'  
Track history (hours):
 
Tides and Currents Weather Stations Pressure Air Temp Water Temp Dewpoint Dewpoint Depression Visibility Wind Speed Wind Dir Waves Ship Positions

Gulf

Last reported at 2015-Jul-29 19:15 UTC. Time now 2015-Aug-02 16:26 UTC.
Position N 37°14' E 015°29'.

Length 96 m; draft 3.2 m.

Type: Cargo ship. MMSI: 304320000.

Date/timePositionNaut miles runAvg speedWind from/ knotsBaromVisibWave heightAir tempDewpointWater temp
2015-Jul-29 19:15N 37°14' E 015°29'7 0.3
2015-Jul-28 19:09N 37°20' E 015°33'0 0.7
2015-Jul-28 18:33N 37°21' E 015°33'15 1.4
2015-Jul-28 08:06N 37°06' E 015°28'9 3.6
2015-Jul-28 05:33N 36°57' E 015°29'1 0.7
2015-Jul-28 04:33N 36°58' E 015°30'12 0.8
2015-Jul-27 13:33N 37°09' E 015°35'9 0.5
2015-Jul-26 20:03N 37°17' E 015°31'0 0.6
2015-Jul-26 19:33N 37°17' E 015°30'1 0.6
2015-Jul-26 18:33N 37°17' E 015°29'74 3.2
2015-Jul-25 19:33N 36°08' E 014°55'6 6.5
2015-Jul-25 18:34N 36°03' E 014°51'7 6.6
2015-Jul-25 17:33N 35°57' E 014°47'4 3.0
2015-Jul-25 16:14N 35°53' E 014°45'0 0.0
2015-Jul-25 15:29N 35°53' E 014°45'0 0.0
2015-Jul-25 14:32N 35°53' E 014°45'0 0.0
2015-Jul-25 13:32N 35°53' E 014°45'0 0.0
2015-Jul-25 12:32N 35°53' E 014°45'18 5.4
2015-Jul-25 09:18N 35°45' E 014°26'7 9.0
2015-Jul-25 08:33N 35°49' E 014°19'10 9.7
2015-Jul-25 07:33N 35°56' E 014°11'9 9.2
2015-Jul-25 06:34N 36°02' E 014°03'8 8.3
2015-Jul-25 05:33N 36°06' E 013°54'8 7.9
2015-Jul-25 04:33N 36°10' E 013°45'32 7.7
2015-Jul-25 00:24N 36°27' E 013°12'7 7.8
2015-Jul-24 23:33N 36°31' E 013°05'8 7.8
2015-Jul-24 22:34N 36°35' E 012°57'8 7.8
2015-Jul-24 21:34N 36°39' E 012°48'8 7.7
2015-Jul-24 20:34N 36°43' E 012°40'8 7.8
2015-Jul-24 19:34N 36°47' E 012°32'9 8.4
2015-Jul-24 18:28N 36°52' E 012°22'11 8.9
2015-Jul-24 17:14N 36°57' E 012°10'  

Dump ship's entire track history